createdAt,value
2023-06-17T00:00:52.625Z,14.96
2023-06-17T00:03:22.305Z,14.96
2023-06-17T00:05:50.512Z,14.94
2023-06-17T00:08:18.664Z,14.95
2023-06-17T00:10:46.985Z,14.94
2023-06-17T00:13:20.960Z,14.95
2023-06-17T00:15:57.870Z,14.99
2023-06-17T00:18:28.170Z,14.96
2023-06-17T00:20:58.856Z,14.91
2023-06-17T00:23:27.437Z,14.90
2023-06-17T00:25:56.370Z,14.82
2023-06-17T00:28:24.618Z,14.80
2023-06-17T00:30:54.098Z,14.70
2023-06-17T00:33:24.307Z,14.57
2023-06-17T00:35:55.890Z,14.49
2023-06-17T00:38:24.818Z,14.43
2023-06-17T00:44:41.482Z,14.37
2023-06-17T00:47:11.700Z,14.16
2023-06-17T00:49:42.490Z,14.08
2023-06-17T00:54:45.086Z,13.98
2023-06-17T00:57:15.650Z,13.95
2023-06-17T00:59:46.051Z,13.91
2023-06-17T01:02:14.724Z,13.79
2023-06-17T01:04:44.680Z,13.71
2023-06-17T01:07:26.033Z,13.65
2023-06-17T01:10:01.222Z,13.59
2023-06-17T01:12:30.596Z,13.60
2023-06-17T01:14:59.862Z,13.55
2023-06-17T01:17:29.837Z,13.44
2023-06-17T01:20:00.018Z,13.43
2023-06-17T01:22:30.472Z,13.44
2023-06-17T01:25:02.402Z,13.50
2023-06-17T01:31:43.111Z,13.34
2023-06-17T01:34:11.911Z,13.36
2023-06-17T01:36:42.238Z,13.44
2023-06-17T01:39:16.287Z,13.43
2023-06-17T01:41:49.893Z,13.53
2023-06-17T01:44:18.587Z,13.46
2023-06-17T01:46:47.508Z,13.47
2023-06-17T01:49:17.018Z,13.48
2023-06-17T01:51:45.318Z,13.29
2023-06-17T01:54:13.741Z,13.11
2023-06-17T01:56:42.235Z,12.92
2023-06-17T01:59:11.994Z,12.74
2023-06-17T02:01:40.305Z,12.54
2023-06-17T02:04:08.552Z,12.76
2023-06-17T02:06:40.922Z,12.79
2023-06-17T02:09:09.927Z,12.76
2023-06-17T02:11:38.245Z,12.77
2023-06-17T02:17:57.572Z,12.71
2023-06-17T02:20:26.289Z,12.69
2023-06-17T02:22:54.924Z,12.69
2023-06-17T02:25:24.388Z,12.68
2023-06-17T02:27:52.732Z,12.61
2023-06-17T02:30:24.014Z,12.63
2023-06-17T02:32:52.837Z,12.54
2023-06-17T02:35:23.697Z,12.38
2023-06-17T02:37:51.964Z,12.34
2023-06-17T02:40:20.636Z,12.29
2023-06-17T02:42:52.355Z,12.30
2023-06-17T02:45:20.696Z,12.34
2023-06-17T02:47:49.230Z,12.37
2023-06-17T02:50:24.574Z,12.27
2023-06-17T02:52:57.251Z,12.31
2023-06-17T02:55:28.367Z,12.23
2023-06-17T02:57:58.108Z,12.05
2023-06-17T03:00:28.707Z,11.75
2023-06-17T03:02:57.394Z,11.78
2023-06-17T03:05:27.815Z,11.91
2023-06-17T03:07:56.220Z,12.11
2023-06-17T03:14:20.608Z,11.92
2023-06-17T03:16:49.954Z,11.85
2023-06-17T03:19:19.074Z,11.79
2023-06-17T03:21:50.332Z,11.79
2023-06-17T03:24:19.149Z,11.93
2023-06-17T03:26:48.146Z,11.72
2023-06-17T03:29:17.762Z,11.65
2023-06-17T03:31:47.470Z,11.77
2023-06-17T03:34:16.235Z,11.84
2023-06-17T03:36:49.374Z,11.86
2023-06-17T03:39:19.166Z,11.86
2023-06-17T03:41:47.699Z,12.00
2023-06-17T03:44:16.340Z,12.23
2023-06-17T03:46:45.134Z,12.54
2023-06-17T03:49:13.915Z,12.81
2023-06-17T03:51:42.167Z,12.84
2023-06-17T03:54:10.512Z,12.76
2023-06-17T03:56:41.383Z,13.04
2023-06-17T03:59:12.215Z,13.44
2023-06-17T04:01:41.541Z,13.73
2023-06-17T04:04:10.427Z,14.15
2023-06-17T04:06:38.723Z,14.41
2023-06-17T04:09:06.964Z,14.89
2023-06-17T04:11:36.321Z,15.03
2023-06-17T04:14:06.050Z,14.86
2023-06-17T04:16:36.641Z,15.02
2023-06-17T04:19:04.891Z,15.04
2023-06-17T04:21:33.148Z,14.94
2023-06-17T04:24:01.577Z,14.91
2023-06-17T04:26:30.215Z,15.06
2023-06-17T04:28:59.455Z,15.31
2023-06-17T04:31:29.568Z,15.62
2023-06-17T04:33:58.259Z,15.93
2023-06-17T04:36:26.629Z,16.36
2023-06-17T04:38:55.058Z,16.69
2023-06-17T04:41:25.149Z,16.83
2023-06-17T04:47:44.375Z,16.30
2023-06-17T04:50:17.930Z,16.40
2023-06-17T04:52:49.912Z,16.86
2023-06-17T04:55:23.080Z,17.26
2023-06-17T04:57:51.552Z,17.63
2023-06-17T05:00:58.367Z,17.93
2023-06-17T05:03:35.783Z,18.26
2023-06-17T05:06:04.148Z,18.52
2023-06-17T05:08:33.421Z,18.30
2023-06-17T05:11:02.188Z,17.78
2023-06-17T05:13:31.797Z,17.77
2023-06-17T05:16:00.992Z,18.18
2023-06-17T05:18:31.266Z,18.57
2023-06-17T05:21:01.337Z,18.42
2023-06-17T05:23:29.589Z,18.40
2023-06-17T05:25:57.988Z,18.55
2023-06-17T05:28:26.573Z,18.74
2023-06-17T05:31:32.101Z,18.94
2023-06-17T05:34:01.172Z,18.99
2023-06-17T05:36:30.861Z,19.04
2023-06-17T05:38:59.323Z,19.16
2023-06-17T05:41:27.787Z,19.30
2023-06-17T05:43:56.584Z,19.44
2023-06-17T05:46:25.366Z,19.54
2023-06-17T05:48:53.706Z,19.43
2023-06-17T05:51:22.642Z,19.52
2023-06-17T05:53:53.039Z,19.67
2023-06-17T05:56:21.534Z,19.87
2023-06-17T05:58:49.767Z,19.73
2023-06-17T06:01:27.243Z,19.87
2023-06-17T06:03:55.893Z,19.80
2023-06-17T06:06:24.450Z,19.83
2023-06-17T06:08:54.119Z,19.76
2023-06-17T06:11:23.209Z,19.91
2023-06-17T06:13:51.632Z,20.01
2023-06-17T06:20:28.331Z,20.22
2023-06-17T06:22:57.416Z,20.23
2023-06-17T06:25:27.415Z,19.70
2023-06-17T06:27:56.546Z,19.34
2023-06-17T06:30:28.568Z,19.46
2023-06-17T06:32:57.800Z,19.74
2023-06-17T06:35:27.294Z,19.73
2023-06-17T06:37:56.473Z,20.07
2023-06-17T06:40:25.328Z,20.14
2023-06-17T06:42:55.272Z,20.38
2023-06-17T06:45:40.573Z,20.71
2023-06-17T06:48:09.403Z,20.46
2023-06-17T06:50:39.164Z,20.76
2023-06-17T06:53:09.481Z,21.13
2023-06-17T06:55:37.984Z,21.26
2023-06-17T06:58:08.114Z,21.39
2023-06-17T07:00:36.955Z,21.51
2023-06-17T07:06:57.732Z,21.40
2023-06-17T07:09:31.045Z,21.58
2023-06-17T07:11:59.400Z,21.71
2023-06-17T07:14:29.259Z,21.76
2023-06-17T07:16:57.664Z,21.77
2023-06-17T07:19:26.146Z,21.90
2023-06-17T07:21:55.184Z,22.09
2023-06-17T07:24:24.333Z,21.99
2023-06-17T07:26:52.807Z,21.73
2023-06-17T07:29:21.666Z,22.22
2023-06-17T07:31:51.364Z,22.40
2023-06-17T07:34:19.646Z,22.67
2023-06-17T07:36:53.495Z,22.22
2023-06-17T07:39:21.947Z,22.66
2023-06-17T07:41:50.115Z,22.83
2023-06-17T07:44:18.923Z,22.64
2023-06-17T07:46:47.248Z,22.69
2023-06-17T07:53:04.609Z,22.94
2023-06-17T07:55:33.422Z,23.05
2023-06-17T07:58:02.311Z,22.96
2023-06-17T08:00:30.656Z,23.39
2023-06-17T08:02:59.068Z,23.16
2023-06-17T08:05:27.539Z,23.03
2023-06-17T08:07:55.729Z,23.50
2023-06-17T08:10:25.464Z,23.33
2023-06-17T08:12:53.808Z,23.37
2023-06-17T08:15:23.450Z,23.24
2023-06-17T08:17:53.884Z,23.32
2023-06-17T08:20:23.104Z,23.36
2023-06-17T08:22:51.708Z,23.47
2023-06-17T08:25:19.930Z,23.79
2023-06-17T08:27:49.646Z,24.14
2023-06-17T08:30:18.635Z,24.23
2023-06-17T08:32:47.428Z,24.24
2023-06-17T08:39:28.318Z,23.96
2023-06-17T08:41:56.841Z,23.28
2023-06-17T08:44:27.384Z,23.56
2023-06-17T08:46:57.286Z,23.21
2023-06-17T08:49:26.985Z,23.41
2023-06-17T08:51:56.223Z,23.61
2023-06-17T08:54:26.826Z,24.11
2023-06-17T08:56:55.208Z,24.77
2023-06-17T08:59:23.435Z,24.36
2023-06-17T09:01:54.404Z,24.08
2023-06-17T09:04:23.489Z,24.08
2023-06-17T09:06:52.317Z,24.29
2023-06-17T09:09:21.498Z,24.60
2023-06-17T09:11:52.801Z,24.77
2023-06-17T09:14:26.229Z,24.58
2023-06-17T09:16:55.958Z,25.03
2023-06-17T09:19:25.185Z,24.55
2023-06-17T09:25:41.650Z,25.49
2023-06-17T09:28:16.136Z,25.11
2023-06-17T09:30:45.623Z,25.48
2023-06-17T09:33:20.610Z,25.94
2023-06-17T09:35:49.239Z,25.74
2023-06-17T09:38:19.528Z,26.08
2023-06-17T09:40:51.186Z,26.26
2023-06-17T09:45:56.548Z,26.86
2023-06-17T09:48:31.012Z,27.02
2023-06-17T09:51:00.254Z,26.93
2023-06-17T09:53:30.613Z,26.22
2023-06-17T09:56:00.923Z,25.88
2023-06-17T09:58:32.006Z,26.02
2023-06-17T10:01:02.363Z,25.95
2023-06-17T10:03:32.507Z,26.34
2023-06-17T10:06:05.294Z,26.86
2023-06-17T10:09:23.167Z,27.07
2023-06-17T10:11:55.090Z,27.19
2023-06-17T10:14:26.456Z,27.39
2023-06-17T10:16:56.281Z,27.85
2023-06-17T10:19:29.978Z,27.67
2023-06-17T10:22:01.288Z,27.58
2023-06-17T10:24:30.048Z,27.50
2023-06-17T10:27:05.239Z,27.48
2023-06-17T10:29:34.845Z,27.08
2023-06-17T10:32:18.635Z,27.19
2023-06-17T10:35:13.854Z,27.09
2023-06-17T10:37:43.511Z,27.00
2023-06-17T10:40:23.708Z,27.05
2023-06-17T10:42:58.368Z,27.06
2023-06-17T10:45:27.273Z,26.96
2023-06-17T10:48:15.729Z,27.60
2023-06-17T10:50:48.773Z,27.48
2023-06-17T10:53:19.541Z,27.48
2023-06-17T10:55:47.976Z,27.48
2023-06-17T10:58:16.155Z,27.73
2023-06-17T11:00:44.969Z,27.85
2023-06-17T11:03:16.422Z,27.52
2023-06-17T11:05:48.891Z,27.16
2023-06-17T11:08:17.519Z,27.61
2023-06-17T11:10:45.796Z,27.67
2023-06-17T11:13:14.134Z,26.73
2023-06-17T11:15:42.354Z,26.23
2023-06-17T11:18:11.268Z,26.91
2023-06-17T11:20:39.818Z,27.37
2023-06-17T11:23:10.445Z,27.23
2023-06-17T11:25:45.032Z,27.74
2023-06-17T11:28:14.245Z,27.64
2023-06-17T11:30:42.810Z,27.99
2023-06-17T11:33:11.554Z,28.45
2023-06-17T11:35:40.169Z,28.57
2023-06-17T11:38:10.282Z,27.74
2023-06-17T11:44:26.279Z,27.59
2023-06-17T11:46:57.348Z,27.29
2023-06-17T11:49:29.478Z,27.25
2023-06-17T11:52:02.255Z,27.54
2023-06-17T11:54:31.889Z,27.85
2023-06-17T11:57:00.888Z,27.72
2023-06-17T11:59:30.078Z,27.86
2023-06-17T12:01:58.319Z,27.81
2023-06-17T12:04:27.029Z,28.11
2023-06-17T12:06:55.385Z,27.84
2023-06-17T12:09:23.828Z,28.04
2023-06-17T12:11:53.459Z,28.05
2023-06-17T12:14:22.029Z,28.01
2023-06-17T12:16:50.335Z,27.66
2023-06-17T12:19:23.664Z,27.50
2023-06-17T12:21:52.349Z,27.63
2023-06-17T12:24:22.163Z,27.66
2023-06-17T12:27:57.983Z,27.33
2023-06-17T12:30:27.651Z,27.39
2023-06-17T12:32:56.399Z,27.66
2023-06-17T12:35:25.808Z,27.49
2023-06-17T12:37:55.770Z,27.02
2023-06-17T12:40:24.557Z,27.28
2023-06-17T12:42:52.982Z,27.77
2023-06-17T12:45:22.954Z,27.86
2023-06-17T12:47:53.240Z,27.38
2023-06-17T12:50:21.613Z,27.54
2023-06-17T12:52:52.703Z,27.54
2023-06-17T12:55:21.252Z,27.32
2023-06-17T12:57:49.652Z,27.64
2023-06-17T13:00:18.930Z,27.80
2023-06-17T13:02:47.921Z,27.91
2023-06-17T13:05:17.838Z,27.60
2023-06-17T13:07:46.076Z,27.87
2023-06-17T13:10:14.335Z,27.68
2023-06-17T13:16:49.407Z,27.79
2023-06-17T13:19:18.427Z,27.87
2023-06-17T13:21:48.157Z,27.98
2023-06-17T13:24:16.415Z,27.83
2023-06-17T13:26:44.909Z,27.57
2023-06-17T13:29:13.205Z,27.81
2023-06-17T13:31:41.444Z,27.61
2023-06-17T13:34:09.830Z,27.88
2023-06-17T13:36:40.389Z,27.48
2023-06-17T13:39:10.596Z,27.59
2023-06-17T13:41:38.864Z,27.62
2023-06-17T13:44:09.115Z,27.65
2023-06-17T13:46:37.603Z,27.60
2023-06-17T13:49:06.009Z,27.57
2023-06-17T13:51:34.314Z,27.33
2023-06-17T13:54:02.903Z,27.56
2023-06-17T13:56:32.546Z,27.87
2023-06-17T14:03:16.435Z,27.61
2023-06-17T14:05:46.049Z,27.19
2023-06-17T14:08:14.510Z,27.02
2023-06-17T14:10:42.788Z,27.12
2023-06-17T14:13:13.142Z,26.94
2023-06-17T14:15:41.495Z,27.16
2023-06-17T14:18:09.867Z,27.32
2023-06-17T14:20:38.181Z,27.49
2023-06-17T14:23:07.513Z,27.58
2023-06-17T14:25:35.896Z,27.82
2023-06-17T14:28:05.726Z,27.76
2023-06-17T14:30:35.955Z,28.05
2023-06-17T14:33:04.334Z,27.71
2023-06-17T14:35:32.736Z,27.72
2023-06-17T14:38:00.947Z,27.74
2023-06-17T14:40:30.092Z,27.57
2023-06-17T14:42:58.471Z,27.50
2023-06-17T14:49:03.231Z,27.64
2023-06-17T14:51:31.501Z,27.60
2023-06-17T14:53:59.714Z,27.62
2023-06-17T14:56:29.110Z,27.54
2023-06-17T14:58:57.837Z,27.39
2023-06-17T15:01:34.677Z,27.20
2023-06-17T15:04:03.454Z,27.40
2023-06-17T15:06:32.705Z,27.32
2023-06-17T15:09:26.342Z,27.34
2023-06-17T15:11:56.398Z,27.33
2023-06-17T15:14:25.834Z,26.97
2023-06-17T15:16:56.798Z,27.13
2023-06-17T15:19:25.046Z,27.16
2023-06-17T15:21:53.334Z,27.14
2023-06-17T15:24:21.646Z,26.94
2023-06-17T15:26:49.989Z,26.86
2023-06-17T15:29:18.464Z,26.98
2023-06-17T15:35:39.074Z,27.29
2023-06-17T15:38:07.542Z,27.43
2023-06-17T15:40:36.209Z,27.29
2023-06-17T15:43:04.632Z,27.24
2023-06-17T15:45:32.995Z,27.09
2023-06-17T15:48:02.714Z,27.08
2023-06-17T15:50:31.094Z,27.34
2023-06-17T15:52:59.369Z,27.25
2023-06-17T15:55:27.724Z,27.40
2023-06-17T15:57:56.097Z,27.43
2023-06-17T16:00:24.595Z,27.22
2023-06-17T16:02:53.448Z,27.06
2023-06-17T16:05:23.573Z,26.92
2023-06-17T16:07:52.059Z,26.70
2023-06-17T16:10:21.349Z,26.66
2023-06-17T16:12:50.193Z,26.96
2023-06-17T16:15:18.571Z,26.90
2023-06-17T16:17:47.172Z,27.12
2023-06-17T16:20:15.543Z,27.27
2023-06-17T16:22:45.401Z,27.22
2023-06-17T16:25:13.631Z,27.18
2023-06-17T16:27:41.904Z,27.30
2023-06-17T16:30:11.176Z,27.20
2023-06-17T16:32:39.463Z,27.25
2023-06-17T16:35:09.613Z,27.30
2023-06-17T16:37:38.056Z,27.38
2023-06-17T16:40:08.903Z,27.44
2023-06-17T16:42:37.356Z,27.28
2023-06-17T16:45:06.702Z,27.03
2023-06-17T16:47:34.985Z,26.79
2023-06-17T16:50:03.252Z,26.81
2023-06-17T16:52:31.870Z,26.87
2023-06-17T16:55:01.270Z,26.95
2023-06-17T16:57:30.843Z,27.17
2023-06-17T16:59:59.224Z,27.13
2023-06-17T17:02:27.684Z,27.14
2023-06-17T17:08:56.117Z,27.29
2023-06-17T17:11:24.426Z,26.72
2023-06-17T17:13:54.024Z,26.53
2023-06-17T17:16:22.372Z,26.40
2023-06-17T17:18:50.833Z,26.33
2023-06-17T17:21:19.234Z,26.35
2023-06-17T17:23:47.709Z,26.46
2023-06-17T17:26:16.170Z,26.48
2023-06-17T17:28:44.552Z,26.42
2023-06-17T17:31:14.143Z,26.48
2023-06-17T17:33:44.511Z,26.28
2023-06-17T17:36:13.991Z,26.37
2023-06-17T17:38:43.375Z,26.48
2023-06-17T17:41:12.352Z,26.63
2023-06-17T17:43:40.997Z,26.50
2023-06-17T17:46:10.518Z,26.65
2023-06-17T17:48:40.525Z,26.55
2023-06-17T17:55:20.949Z,26.29
2023-06-17T17:57:49.231Z,26.07
2023-06-17T18:00:17.936Z,26.12
2023-06-17T18:02:47.584Z,26.10
2023-06-17T18:05:17.298Z,25.93
2023-06-17T18:07:46.934Z,25.88
2023-06-17T18:10:17.240Z,25.80
2023-06-17T18:12:45.728Z,25.79
2023-06-17T18:15:13.980Z,25.76
2023-06-17T18:17:42.574Z,25.48
2023-06-17T18:20:11.291Z,25.57
2023-06-17T18:22:41.047Z,25.44
2023-06-17T18:25:09.967Z,25.51
2023-06-17T18:27:39.733Z,25.60
2023-06-17T18:30:10.338Z,25.49
2023-06-17T18:32:38.550Z,25.42
2023-06-17T18:35:07.723Z,25.44
2023-06-17T18:41:31.369Z,25.26
2023-06-17T18:44:00.869Z,25.31
2023-06-17T18:46:29.186Z,25.26
2023-06-17T18:48:57.771Z,25.24
2023-06-17T18:51:26.142Z,25.20
2023-06-17T18:53:55.799Z,25.16
2023-06-17T18:56:24.043Z,25.06
2023-06-17T18:58:52.704Z,24.83
2023-06-17T19:01:21.033Z,24.60
2023-06-17T19:03:49.313Z,24.48
2023-06-17T19:06:17.967Z,24.37
2023-06-17T19:08:46.323Z,24.32
2023-06-17T19:11:16.485Z,24.25
2023-06-17T19:13:45.745Z,24.11
2023-06-17T19:16:14.715Z,23.98
2023-06-17T19:18:42.962Z,24.11
2023-06-17T19:21:11.272Z,23.99
2023-06-17T19:24:09.513Z,23.83
2023-06-17T19:26:39.284Z,23.71
2023-06-17T19:29:07.541Z,23.73
2023-06-17T19:31:35.907Z,23.66
2023-06-17T19:34:04.384Z,23.49
2023-06-17T19:36:32.708Z,23.27
2023-06-17T19:39:00.924Z,23.07
2023-06-17T19:41:30.684Z,22.89
2023-06-17T19:44:00.600Z,22.74
2023-06-17T19:46:29.038Z,22.60
2023-06-17T19:48:57.393Z,22.40
2023-06-17T19:51:26.152Z,22.27
2023-06-17T19:53:54.504Z,22.24
2023-06-17T19:56:24.872Z,22.25
2023-06-17T19:58:53.931Z,21.97
2023-06-17T20:01:24.385Z,21.69
2023-06-17T20:03:52.888Z,21.44
2023-06-17T20:06:21.393Z,21.23
2023-06-17T20:13:01.859Z,21.05
2023-06-17T20:15:30.550Z,21.08
2023-06-17T20:18:00.657Z,20.98
2023-06-17T20:20:31.234Z,20.87
2023-06-17T20:22:59.486Z,20.76
2023-06-17T20:25:27.747Z,20.64
2023-06-17T20:27:55.954Z,20.56
2023-06-17T20:30:24.519Z,20.47
2023-06-17T20:32:53.096Z,20.40
2023-06-17T20:35:22.809Z,20.35
2023-06-17T20:37:51.063Z,20.25
2023-06-17T20:40:19.558Z,20.25
2023-06-17T20:42:48.337Z,20.07
2023-06-17T20:45:16.908Z,19.94
2023-06-17T20:47:45.332Z,19.88
2023-06-17T20:50:13.796Z,19.75
2023-06-17T20:52:43.539Z,19.66
2023-06-17T20:59:22.485Z,19.32
2023-06-17T21:01:50.847Z,19.28
2023-06-17T21:04:19.560Z,19.22
2023-06-17T21:06:47.702Z,19.14
2023-06-17T21:09:17.299Z,19.02
2023-06-17T21:11:45.458Z,18.70
2023-06-17T21:14:14.629Z,18.54
2023-06-17T21:16:42.925Z,18.46
2023-06-17T21:19:11.643Z,18.37
2023-06-17T21:21:39.812Z,18.38
2023-06-17T21:24:08.068Z,18.41
2023-06-17T21:26:37.641Z,18.43
2023-06-17T21:29:05.874Z,18.49
2023-06-17T21:31:34.072Z,18.59
2023-06-17T21:34:02.378Z,18.64
2023-06-17T21:36:30.627Z,18.69
2023-06-17T21:38:58.968Z,18.70
2023-06-17T21:41:27.865Z,18.68
2023-06-17T21:43:57.637Z,18.55
2023-06-17T21:46:29.193Z,18.40
2023-06-17T21:48:57.766Z,18.29
2023-06-17T21:51:26.099Z,18.23
2023-06-17T21:53:54.651Z,18.26
2023-06-17T21:56:23.169Z,18.33
2023-06-17T21:58:51.330Z,18.23
2023-06-17T22:01:21.052Z,18.10
2023-06-17T22:03:49.542Z,18.17
2023-06-17T22:06:17.790Z,18.03
2023-06-17T22:08:46.000Z,17.94
2023-06-17T22:11:14.363Z,17.83
2023-06-17T22:13:42.584Z,17.77
2023-06-17T22:16:12.674Z,17.72
2023-06-17T22:18:42.672Z,17.73
2023-06-17T22:21:11.300Z,17.71
2023-06-17T22:23:39.552Z,17.64
2023-06-17T22:26:07.948Z,17.55
2023-06-17T22:32:05.257Z,17.23
2023-06-17T22:34:36.397Z,17.14
2023-06-17T22:37:05.489Z,17.20
2023-06-17T22:39:33.754Z,17.27
2023-06-17T22:42:02.026Z,17.26
2023-06-17T22:44:30.828Z,17.27
2023-06-17T22:46:59.131Z,17.26
2023-06-17T22:49:27.390Z,17.27
2023-06-17T22:51:56.962Z,17.23
2023-06-17T22:54:25.212Z,17.11
2023-06-17T22:56:53.391Z,16.97
2023-06-17T22:59:21.683Z,16.81
2023-06-17T23:01:49.922Z,16.82
2023-06-17T23:04:18.201Z,17.08
2023-06-17T23:06:46.432Z,16.99
2023-06-17T23:09:16.533Z,16.79
2023-06-17T23:11:44.919Z,16.66
2023-06-17T23:18:15.980Z,16.53
2023-06-17T23:20:45.011Z,16.52
2023-06-17T23:23:13.656Z,16.47
2023-06-17T23:25:43.779Z,16.41
2023-06-17T23:28:12.675Z,16.37
2023-06-17T23:30:41.010Z,16.41
2023-06-17T23:33:11.928Z,16.44
2023-06-17T23:35:40.200Z,16.71
2023-06-17T23:38:08.783Z,16.71
2023-06-17T23:40:37.645Z,16.59
2023-06-17T23:43:07.338Z,16.54
2023-06-17T23:45:35.530Z,16.63
2023-06-17T23:48:03.881Z,16.41
2023-06-17T23:50:32.337Z,16.30
2023-06-17T23:53:00.898Z,16.10
2023-06-17T23:55:29.060Z,15.97
2023-06-17T23:57:57.449Z,16.01
